Time;durP1;ratioP1;P1;durP2;ratioP2;P2;SDS_P1;SDS_P2;PMS_P1;PMS_P2;Temp;Humidity;BMP_temperature;BMP_pressure;BME280_temperature;BME280_humidity;BME280_pressure;Samples;Min_cycle;Max_cycle;Signal;HPM_P1;HPM_P2
2023/01/26 00:01:35;;;;;;;17.70;12.38;;;15.40;63.20;;;;;;4194757;28;20052;-63
2023/01/26 00:04:16;;;;;;;18.23;12.18;;;15.50;63.10;;;;;;4185049;28;20052;-63
2023/01/26 00:06:58;;;;;;;16.60;11.40;;;15.50;62.80;;;;;;4194304;28;20059;-63
2023/01/26 00:09:38;;;;;;;15.25;10.70;;;15.50;62.60;;;;;;4177619;28;20056;-63
2023/01/26 00:12:19;;;;;;;17.10;11.65;;;15.50;62.60;;;;;;4193623;28;20685;-62
2023/01/26 00:15:00;;;;;;;16.10;11.60;;;15.50;62.50;;;;;;4177512;28;20099;-62
2023/01/26 00:17:41;;;;;;;19.10;12.90;;;15.50;62.80;;;;;;4177877;28;20047;-62
2023/01/26 00:20:22;;;;;;;14.98;11.00;;;15.50;63.80;;;;;;4177750;28;20478;-63
2023/01/26 00:23:04;;;;;;;15.82;10.55;;;15.50;62.90;;;;;;4182766;28;20411;-62
2023/01/26 00:25:45;;;;;;;17.42;11.77;;;15.60;62.70;;;;;;4193887;28;20146;-62
2023/01/26 00:28:27;;;;;;;15.82;10.63;;;15.60;63.40;;;;;;4193808;28;20063;-63
2023/01/26 00:31:10;;;;;;;15.60;11.05;;;15.70;62.40;;;;;;4193549;28;20063;-63
2023/01/26 00:33:52;;;;;;;13.93;10.35;;;15.70;62.30;;;;;;4193576;28;20051;-63
2023/01/26 00:36:35;;;;;;;;;;;15.60;62.20;;;;;;4194297;28;20141;-62
2023/01/26 00:39:17;;;;;;;14.88;10.32;;;15.60;62.40;;;;;;4194203;28;20069;-62
2023/01/26 00:42:08;;;;;;;13.77;10.15;;;15.70;63.20;;;;;;4193770;28;20056;-62
2023/01/26 00:44:50;;;;;;;14.23;10.30;;;15.70;62.10;;;;;;4176894;28;20617;-63
2023/01/26 00:47:30;;;;;;;13.20;9.48;;;15.80;62.10;;;;;;4177420;28;20214;-62
2023/01/26 00:50:11;;;;;;;13.17;7.93;;;15.80;62.10;;;;;;4179167;28;20431;-62
2023/01/26 00:52:53;;;;;;;11.70;8.80;;;15.80;61.90;;;;;;4193875;28;20055;-62
2023/01/26 00:55:38;;;;;;;12.77;9.15;;;15.90;61.70;;;;;;4193989;28;20048;-62
2023/01/26 00:58:19;;;;;;;11.63;8.48;;;15.80;61.60;;;;;;4176338;28;20056;-62
2023/01/26 01:01:02;;;;;;;12.52;8.80;;;15.80;61.60;;;;;;4186992;28;20071;-63
2023/01/26 01:03:43;;;;;;;13.55;9.55;;;15.70;62.70;;;;;;4193256;28;20526;-62
2023/01/26 01:06:24;;;;;;;12.82;9.35;;;15.60;62.10;;;;;;4176969;28;20052;-62
2023/01/26 01:09:05;;;;;;;12.05;8.50;;;15.50;62.80;;;;;;4193309;28;20052;-63
2023/01/26 01:11:47;;;;;;;11.57;8.30;;;15.50;62.80;;;;;;4177826;28;20051;-62
2023/01/26 01:14:29;;;;;;;12.18;8.40;;;15.60;62.80;;;;;;4193165;28;20059;-62
2023/01/26 01:17:10;;;;;;;11.65;8.93;;;15.70;62.40;;;;;;4193433;28;20055;-63
2023/01/26 01:19:51;;;;;;;11.52;8.02;;;15.80;62.10;;;;;;4193266;28;20047;-63
2023/01/26 01:22:35;;;;;;;11.30;8.52;;;15.80;61.90;;;;;;4175866;28;20063;-63
2023/01/26 01:25:16;;;;;;;11.32;8.75;;;15.90;61.80;;;;;;4175907;28;20047;-63
2023/01/26 01:27:58;;;;;;;10.68;7.93;;;16.00;61.50;;;;;;4175644;28;20086;-63
2023/01/26 01:30:40;;;;;;;10.00;8.02;;;16.10;61.20;;;;;;4182166;28;20398;-63
2023/01/26 01:33:22;;;;;;;10.10;8.15;;;16.20;60.90;;;;;;4192563;28;20059;-63
2023/01/26 01:36:05;;;;;;;11.93;8.40;;;16.10;60.90;;;;;;4188487;28;20051;-63
2023/01/26 01:38:47;;;;;;;9.52;7.03;;;16.20;60.90;;;;;;4192540;28;20062;-63
2023/01/26 01:41:28;;;;;;;9.63;7.30;;;16.20;60.80;;;;;;4189096;28;20172;-63
2023/01/26 01:44:17;;;;;;;12.15;8.32;;;16.30;60.70;;;;;;4192442;28;20051;-62
2023/01/26 01:47:00;;;;;;;11.80;8.73;;;16.30;60.40;;;;;;4190075;28;20866;-63
2023/01/26 01:49:45;;;;;;;12.85;7.68;;;16.20;60.50;;;;;;4179965;28;20383;-63
2023/01/26 01:52:30;;;;;;;11.80;8.70;;;16.20;60.80;;;;;;4163449;28;20553;-62
2023/01/26 01:55:14;;;;;;;12.43;8.02;;;16.20;61.90;;;;;;4176053;28;20039;-64
2023/01/26 01:57:59;;;;;;;11.75;8.77;;;16.20;61.00;;;;;;4178467;28;20059;-62
2023/01/26 02:00:41;;;;;;;11.10;7.72;;;16.20;60.90;;;;;;4181136;28;20121;-62
2023/01/26 02:03:22;;;;;;;10.32;7.70;;;16.20;61.10;;;;;;4179582;28;20076;-63
2023/01/26 02:06:07;;;;;;;13.82;8.63;;;16.20;60.90;;;;;;4179968;28;20058;-63
2023/01/26 02:08:51;;;;;;;12.52;8.82;;;16.20;60.90;;;;;;4179622;28;20052;-63
2023/01/26 02:11:38;;;;;;;13.02;9.27;;;16.10;60.90;;;;;;4192105;28;20067;-63
2023/01/26 02:14:19;;;;;;;11.00;8.23;;;16.10;61.20;;;;;;4180086;28;20059;-63
2023/01/26 02:17:02;;;;;;;12.65;8.68;;;16.00;61.50;;;;;;4192204;28;20115;-63
2023/01/26 02:19:51;;;;;;;11.32;8.07;;;16.00;61.60;;;;;;4175704;28;20043;-63
2023/01/26 02:22:42;;;;;;;10.98;8.13;;;16.00;61.40;;;;;;4182099;28;20505;-63
2023/01/26 02:25:31;;;;;;;11.65;8.77;;;16.00;61.30;;;;;;4190435;28;20051;-62
2023/01/26 02:28:14;;;;;;;10.75;7.88;;;16.00;61.40;;;;;;4192111;28;20396;-63
2023/01/26 02:30:56;;;;;;;11.85;8.48;;;16.00;61.60;;;;;;4191335;28;20105;-63
2023/01/26 02:33:38;;;;;;;12.95;8.60;;;15.90;61.70;;;;;;4191431;28;20063;-62
2023/01/26 02:36:21;;;;;;;;;;;15.80;61.90;;;;;;4166258;28;20202;-63
2023/01/26 02:39:20;;;;;;;10.27;7.55;;;15.70;62.40;;;;;;4178326;28;19930;-63
2023/01/26 02:45:02;;;;;;;11.27;8.40;;;15.50;63.10;;;;;;4155661;28;20063;-63
2023/01/26 02:47:44;;;;;;;9.27;6.90;;;15.40;63.50;;;;;;4171870;28;20510;-63
2023/01/26 02:50:24;;;;;;;9.77;6.72;;;15.40;63.90;;;;;;4178863;28;20130;-63
2023/01/26 02:53:05;;;;;;;11.82;8.43;;;15.50;63.70;;;;;;4176306;28;20047;-63
2023/01/26 02:55:47;;;;;;;9.13;6.88;;;15.60;63.40;;;;;;4176878;28;20121;-63
2023/01/26 02:58:27;;;;;;;10.20;7.72;;;15.70;63.00;;;;;;4189172;28;20108;-63
2023/01/26 03:01:09;;;;;;;9.97;7.13;;;15.80;62.70;;;;;;4190863;28;20114;-63
2023/01/26 03:03:59;;;;;;;11.93;8.68;;;15.80;62.50;;;;;;4191832;28;20411;-63
2023/01/26 03:06:40;;;;;;;9.48;7.28;;;15.90;62.40;;;;;;4191054;28;20063;-63
2023/01/26 03:09:21;;;;;;;10.07;7.47;;;15.90;62.30;;;;;;4173595;28;20101;-63
2023/01/26 03:12:03;;;;;;;10.95;8.25;;;15.90;62.30;;;;;;4178500;28;20055;-62
2023/01/26 03:14:44;;;;;;;9.35;7.05;;;15.80;62.30;;;;;;4166109;28;20142;-63
2023/01/26 03:17:27;;;;;;;9.55;6.93;;;15.70;62.60;;;;;;4183921;28;20194;-63
2023/01/26 03:29:08;;;;;;;10.10;7.43;;;16.10;61.80;;;;;;4193290;28;20059;-62
2023/01/26 03:31:50;;;;;;;8.32;7.00;;;16.10;61.70;;;;;;4194131;28;20594;-62
2023/01/26 03:34:32;;;;;;;9.05;6.93;;;16.10;61.80;;;;;;4193997;28;20059;-62
2023/01/26 03:37:14;;;;;;;10.02;7.50;;;16.20;61.40;;;;;;4184749;28;20043;-62
2023/01/26 03:58:08;;;;;;;8.32;6.38;;;16.10;61.40;;;;;;4193451;28;20571;-62
2023/01/26 04:00:49;;;;;;;7.68;6.35;;;16.00;61.60;;;;;;4181502;28;20453;-63
2023/01/26 04:09:29;;;;;;;10.43;6.93;;;15.80;62.30;;;;;;4194141;28;20052;-63
2023/01/26 04:12:11;;;;;;;8.23;6.35;;;15.80;62.70;;;;;;4193396;28;20052;-63
2023/01/26 04:24:08;;;;;;;8.30;6.80;;;15.60;63.40;;;;;;4192685;28;20101;-62
2023/01/26 04:26:51;;;;;;;7.88;6.25;;;15.70;63.60;;;;;;4193021;28;20114;-63
2023/01/26 04:29:36;;;;;;;8.15;6.00;;;15.70;63.40;;;;;;4192939;28;20110;-63
2023/01/26 04:32:18;;;;;;;6.55;5.47;;;15.80;63.10;;;;;;4177509;28;20052;-62
2023/01/26 04:35:00;;;;;;;6.80;5.60;;;15.80;63.10;;;;;;4180455;28;20047;-62
2023/01/26 04:37:44;;;;;;;6.28;5.68;;;15.90;62.80;;;;;;4169242;28;20060;-63
2023/01/26 04:40:25;;;;;;;7.85;5.65;;;16.00;62.60;;;;;;4164799;28;20059;-62
2023/01/26 04:43:08;;;;;;;6.38;5.32;;;16.00;63.30;;;;;;4191353;28;20123;-62
2023/01/26 04:45:58;;;;;;;6.68;5.75;;;16.00;62.20;;;;;;4192723;28;20125;-63
2023/01/26 04:48:41;;;;;;;9.10;6.00;;;16.10;61.80;;;;;;4175743;28;20051;-65
2023/01/26 04:51:22;;;;;;;6.22;5.13;;;16.20;61.80;;;;;;4176177;28;20103;-63
2023/01/26 04:54:03;;;;;;;6.32;5.05;;;16.20;61.70;;;;;;4176239;28;20040;-63
2023/01/26 04:56:46;;;;;;;8.32;6.25;;;16.20;61.70;;;;;;4179168;28;20063;-63
2023/01/26 04:59:30;;;;;;;7.03;5.88;;;16.20;61.60;;;;;;4192808;28;20408;-63
2023/01/26 05:02:13;;;;;;;6.63;5.75;;;16.20;61.40;;;;;;4176500;28;20051;-63
2023/01/26 05:04:54;;;;;;;7.30;5.85;;;16.20;61.60;;;;;;4180836;28;20055;-63
2023/01/26 05:07:35;;;;;;;8.23;6.00;;;16.20;61.70;;;;;;4170787;28;20052;-64
2023/01/26 05:10:16;;;;;;;7.95;6.22;;;16.20;61.60;;;;;;4190328;28;20052;-64
2023/01/26 05:13:08;;;;;;;8.05;5.88;;;16.20;61.50;;;;;;4190852;28;20056;-63
2023/01/26 05:15:59;;;;;;;8.27;6.60;;;16.20;61.60;;;;;;4192181;28;20056;-63
2023/01/26 05:19:01;;;;;;;11.52;6.85;;;16.10;61.80;;;;;;4176629;28;20612;-63
2023/01/26 05:21:55;;;;;;;10.38;7.38;;;16.10;61.90;;;;;;4189296;28;20059;-63
2023/01/26 05:24:36;;;;;;;10.43;7.68;;;16.10;61.90;;;;;;4192194;28;20392;-63
2023/01/26 05:27:29;;;;;;;10.45;6.85;;;16.10;61.90;;;;;;4191825;28;20133;-63
2023/01/26 05:30:13;;;;;;;14.32;7.50;;;16.00;62.10;;;;;;4191778;28;20478;-62
2023/01/26 05:33:00;;;;;;;12.82;7.72;;;16.00;62.50;;;;;;4191716;28;20521;-63
2023/01/26 05:35:42;;;;;;;12.23;7.63;;;16.00;62.30;;;;;;4165401;28;20562;-62
2023/01/26 05:38:23;;;;;;;26.92;24.55;;;16.10;62.20;;;;;;4180283;28;20609;-63
2023/01/26 05:41:07;;;;;;;11.30;7.18;;;16.10;62.00;;;;;;4168643;28;20094;-62
2023/01/26 05:44:02;;;;;;;9.15;7.20;;;16.20;62.00;;;;;;4163550;28;20061;-62
2023/01/26 05:46:54;;;;;;;11.32;7.43;;;16.20;62.70;;;;;;4163757;28;20051;-63
2023/01/26 05:49:41;;;;;;;11.82;7.45;;;16.30;61.50;;;;;;4172236;28;20048;-63
2023/01/26 05:52:26;;;;;;;13.18;7.40;;;16.30;61.30;;;;;;4180030;28;20059;-62
2023/01/26 05:55:07;;;;;;;13.32;8.30;;;16.30;61.50;;;;;;4180038;28;20129;-62
2023/01/26 05:57:48;;;;;;;11.02;7.25;;;16.30;61.40;;;;;;4192580;28;20118;-62
2023/01/26 06:00:29;;;;;;;10.38;7.22;;;16.30;61.30;;;;;;4185810;28;20055;-63
2023/01/26 06:03:18;;;;;;;9.35;7.10;;;16.30;61.40;;;;;;4191743;28;20085;-62
2023/01/26 06:06:01;;;;;;;;;;;16.30;61.60;;;;;;4192168;28;20101;-62
2023/01/26 06:08:51;;;;;;;11.23;6.93;;;16.30;61.80;;;;;;4175001;28;19927;-64
2023/01/26 06:11:44;;;;;;;10.25;6.63;;;16.30;61.70;;;;;;4175253;28;20098;-63
2023/01/26 06:14:32;;;;;;;11.10;7.57;;;16.20;61.70;;;;;;4175203;28;20044;-63
2023/01/26 06:17:15;;;;;;;13.40;7.97;;;16.10;61.90;;;;;;4179109;28;20422;-63
2023/01/26 06:19:57;;;;;;;15.48;8.20;;;16.10;62.00;;;;;;4190813;28;20193;-63
2023/01/26 06:22:40;;;;;;;11.98;7.50;;;16.10;62.10;;;;;;4191373;28;20209;-63
2023/01/26 06:25:21;;;;;;;15.07;8.57;;;16.10;62.00;;;;;;4180099;28;20193;-63
2023/01/26 06:28:03;;;;;;;14.95;8.63;;;16.10;62.20;;;;;;4191041;28;20052;-63
2023/01/26 06:30:44;;;;;;;15.32;8.63;;;16.10;62.20;;;;;;4190983;28;20083;-63
2023/01/26 06:33:25;;;;;;;21.25;8.52;;;16.10;62.20;;;;;;4191088;28;20063;-63
2023/01/26 06:36:08;;;;;;;17.42;9.07;;;16.10;62.20;;;;;;4188844;28;20059;-63
2023/01/26 06:38:52;;;;;;;23.83;12.57;;;16.10;62.40;;;;;;4176826;28;20139;-63
2023/01/26 06:41:36;;;;;;;35.00;18.20;;;16.10;62.20;;;;;;4191291;28;20055;-62
2023/01/26 06:44:16;;;;;;;22.33;12.48;;;16.10;62.20;;;;;;4191833;28;20055;-62
2023/01/26 06:46:58;;;;;;;20.88;9.77;;;16.10;62.30;;;;;;4190768;28;20051;-62
2023/01/26 06:49:39;;;;;;;13.30;6.68;;;16.10;62.30;;;;;;4175283;28;20094;-62
2023/01/26 06:52:27;;;;;;;10.27;6.68;;;16.10;62.20;;;;;;4189490;28;20408;-62
2023/01/26 06:55:19;;;;;;;11.25;7.30;;;16.10;62.10;;;;;;4189624;28;20603;-61
2023/01/26 06:58:27;;;;;;;13.43;6.90;;;16.10;62.20;;;;;;4170760;28;20183;-61
2023/01/26 07:01:27;;;;;;;12.23;6.90;;;16.20;62.60;;;;;;4175096;28;20511;-61
2023/01/26 07:04:08;;;;;;;19.15;8.38;;;16.30;62.20;;;;;;4175361;28;20751;-60
2023/01/26 07:06:49;;;;;;;13.85;8.27;;;16.30;62.00;;;;;;4189933;28;20122;-61
2023/01/26 07:09:30;;;;;;;16.77;8.10;;;16.40;61.90;;;;;;4188793;28;20511;-60
2023/01/26 07:12:12;;;;;;;14.43;8.00;;;16.30;62.00;;;;;;4191147;28;20071;-61
2023/01/26 07:14:53;;;;;;;13.73;7.82;;;16.30;62.20;;;;;;4191063;28;20059;-61
2023/01/26 07:17:34;;;;;;;15.95;8.35;;;16.40;62.10;;;;;;4191649;28;20063;-61
2023/01/26 07:20:15;;;;;;;13.85;7.30;;;16.50;61.80;;;;;;4191865;28;20179;-61
2023/01/26 07:22:57;;;;;;;19.05;8.73;;;16.50;61.60;;;;;;4175551;28;20051;-62
2023/01/26 07:25:38;;;;;;;16.75;8.05;;;16.50;61.60;;;;;;4184878;28;20146;-62
2023/01/26 07:28:20;;;;;;;17.60;8.18;;;16.50;61.60;;;;;;4191664;28;20063;-61
2023/01/26 07:31:03;;;;;;;14.27;7.40;;;16.50;61.60;;;;;;4175125;28;20056;-62
2023/01/26 07:33:44;;;;;;;15.60;7.85;;;16.40;61.70;;;;;;4179013;28;20055;-62
2023/01/26 07:36:25;;;;;;;14.85;6.80;;;16.40;61.70;;;;;;4189733;28;20089;-61
2023/01/26 07:39:06;;;;;;;15.23;8.00;;;16.30;62.00;;;;;;4191297;28;20051;-62
2023/01/26 07:41:49;;;;;;;16.63;7.38;;;16.40;62.20;;;;;;4175172;28;20063;-61
2023/01/26 07:44:47;;;;;;;9.65;6.68;;;16.30;62.00;;;;;;4173954;28;20055;-60
2023/01/26 07:47:27;;;;;;;13.10;7.05;;;16.30;61.80;;;;;;4185741;28;20174;-60
2023/01/26 07:50:10;;;;;;;12.55;6.30;;;16.30;61.80;;;;;;4191573;28;20563;-60
2023/01/26 07:52:51;;;;;;;14.95;7.90;;;16.20;61.90;;;;;;4187112;28;20051;-71
2023/01/26 07:55:32;;;;;;;14.80;6.80;;;16.10;62.90;;;;;;4192395;28;20056;-72
2023/01/26 07:58:13;;;;;;;15.10;6.63;;;16.00;62.40;;;;;;4194980;28;20063;-71
2023/01/26 08:00:56;;;;;;;14.57;5.93;;;15.90;62.90;;;;;;4194362;28;20376;-71
2023/01/26 08:03:37;;;;;;;19.52;6.40;;;16.00;63.10;;;;;;4178243;28;20056;-70
2023/01/26 08:06:18;;;;;;;13.60;5.30;;;16.00;62.80;;;;;;4180550;28;20051;-70
2023/01/26 08:08:59;;;;;;;13.27;4.95;;;16.00;62.60;;;;;;4194742;28;20158;-70
2023/01/26 08:11:40;;;;;;;15.27;5.38;;;16.10;62.50;;;;;;4193793;28;20111;-70
2023/01/26 08:14:22;;;;;;;14.23;5.85;;;16.00;62.30;;;;;;4177462;28;20068;-70
2023/01/26 08:17:04;;;;;;;15.60;5.47;;;16.00;62.50;;;;;;4177573;28;20056;-71
2023/01/26 08:19:45;;;;;;;13.35;4.50;;;16.00;62.70;;;;;;4180496;28;20198;-70
2023/01/26 08:22:26;;;;;;;13.27;5.00;;;16.00;62.80;;;;;;4177526;28;20502;-71
2023/01/26 08:25:08;;;;;;;15.63;5.25;;;16.10;62.50;;;;;;4177113;28;20056;-71
2023/01/26 08:27:49;;;;;;;13.35;4.85;;;16.10;62.20;;;;;;4177109;28;20078;-71
2023/01/26 08:30:30;;;;;;;13.23;5.20;;;16.10;62.20;;;;;;4182454;28;20174;-70
2023/01/26 08:33:12;;;;;;;13.60;5.40;;;16.10;62.20;;;;;;4194285;28;20055;-71
2023/01/26 08:35:53;;;;;;;18.77;4.55;;;16.10;62.10;;;;;;4193633;28;20297;-70
2023/01/26 08:38:35;;;;;;;12.88;4.75;;;16.10;62.10;;;;;;4193887;28;20490;-69
2023/01/26 08:41:15;;;;;;;;;;;16.00;62.20;;;;;;4190185;28;20128;-70
2023/01/26 08:43:58;;;;;;;17.95;4.35;;;15.90;62.60;;;;;;4175919;28;20378;-70
2023/01/26 08:46:38;;;;;;;11.65;3.78;;;16.00;63.00;;;;;;4193195;28;20051;-71
2023/01/26 08:49:21;;;;;;;15.30;3.25;;;16.00;62.90;;;;;;4177586;28;20072;-70
2023/01/26 08:52:01;;;;;;;12.02;3.83;;;16.00;62.60;;;;;;4165233;28;20537;-70
2023/01/26 08:54:42;;;;;;;18.13;3.73;;;16.00;63.20;;;;;;4174813;28;20391;-70
2023/01/26 08:57:23;;;;;;;65.70;34.70;;;16.00;62.50;;;;;;4191902;28;20407;-70
2023/01/26 09:00:04;;;;;;;44.53;20.40;;;16.10;62.40;;;;;;4193109;28;20055;-70
2023/01/26 09:02:48;;;;;;;13.93;5.07;;;16.20;62.10;;;;;;4193492;28;20057;-64
2023/01/26 09:05:33;;;;;;;19.52;5.90;;;16.20;62.00;;;;;;4193836;28;20093;-72
2023/01/26 09:08:14;;;;;;;20.38;4.63;;;16.30;61.80;;;;;;4193857;28;20055;-70
2023/01/26 09:10:54;;;;;;;12.75;3.42;;;16.30;61.80;;;;;;4184107;28;20138;-70
2023/01/26 09:13:37;;;;;;;16.55;4.38;;;16.20;61.70;;;;;;4193499;28;20063;-71
2023/01/26 09:16:19;;;;;;;17.65;3.65;;;16.20;61.90;;;;;;4192159;28;20126;-70
2023/01/26 09:19:00;;;;;;;13.10;3.50;;;16.20;62.80;;;;;;4177476;28;20114;-70
2023/01/26 09:21:43;;;;;;;18.55;4.45;;;16.20;61.90;;;;;;4192445;28;20160;-70
2023/01/26 09:24:24;;;;;;;14.82;3.50;;;16.20;62.00;;;;;;4188797;28;20209;-72
2023/01/26 09:27:04;;;;;;;15.30;4.03;;;16.20;62.10;;;;;;4192746;28;20162;-70
2023/01/26 09:29:46;;;;;;;15.43;3.13;;;16.10;62.10;;;;;;4175953;28;20051;-70
2023/01/26 09:32:27;;;;;;;17.20;3.75;;;16.00;62.20;;;;;;4166570;28;20060;-70
2023/01/26 09:35:10;;;;;;;16.38;3.55;;;16.00;62.60;;;;;;4192995;28;20055;-70
2023/01/26 09:37:56;;;;;;;20.98;4.18;;;15.90;62.90;;;;;;4181808;28;20059;-70
2023/01/26 09:40:49;;;;;;;13.15;3.28;;;15.90;63.10;;;;;;4177807;28;20056;-70
2023/01/26 09:43:36;;;;;;;19.38;4.05;;;15.80;63.30;;;;;;4192831;28;20067;-70
2023/01/26 09:46:23;;;;;;;21.30;3.67;;;15.80;63.70;;;;;;4175776;28;20515;-71
2023/01/26 09:49:06;;;;;;;19.73;3.92;;;15.80;63.70;;;;;;4175628;28;20051;-71
2023/01/26 09:51:55;;;;;;;14.27;3.78;;;15.90;63.60;;;;;;4178164;28;20048;-71
2023/01/26 09:54:43;;;;;;;19.40;4.43;;;15.90;63.50;;;;;;4193168;28;20487;-70
2023/01/26 09:57:32;;;;;;;20.08;3.80;;;15.90;63.60;;;;;;4175958;28;20310;-71
2023/01/26 10:00:20;;;;;;;15.05;3.83;;;15.80;63.70;;;;;;4192648;28;20052;-71
2023/01/26 10:03:10;;;;;;;17.77;3.70;;;15.70;64.00;;;;;;4187948;28;20517;-71
2023/01/26 10:05:59;;;;;;;12.27;3.80;;;15.60;64.20;;;;;;4192320;28;20059;-71
2023/01/26 10:09:02;;;;;;;15.00;3.58;;;15.60;64.50;;;;;;4192078;28;20089;-71
2023/01/26 10:11:48;;;;;;;17.50;3.58;;;15.40;64.90;;;;;;4192602;28;20495;-71
2023/01/26 10:14:36;;;;;;;17.75;3.58;;;15.40;65.50;;;;;;4175824;28;20059;-71
2023/01/26 10:17:20;;;;;;;15.45;3.30;;;15.40;65.70;;;;;;4192485;28;20177;-71
2023/01/26 10:20:05;;;;;;;11.63;3.05;;;15.50;65.40;;;;;;4188816;28;20125;-69
2023/01/26 10:22:48;;;;;;;20.85;3.47;;;15.60;65.10;;;;;;4164888;28;20059;-71
2023/01/26 10:25:34;;;;;;;17.20;3.20;;;15.80;64.80;;;;;;4194764;28;20125;-71
2023/01/26 10:28:18;;;;;;;13.45;3.40;;;15.90;64.40;;;;;;4187881;28;20051;-71
2023/01/26 10:31:00;;;;;;;13.35;3.17;;;16.10;64.00;;;;;;4175617;28;20106;-70
2023/01/26 10:33:49;;;;;;;17.05;3.08;;;16.20;63.40;;;;;;4175438;28;20060;-70
2023/01/26 10:36:31;;;;;;;15.05;2.90;;;16.40;63.00;;;;;;4175674;28;20052;-71
2023/01/26 10:39:14;;;;;;;18.77;4.22;;;16.50;62.40;;;;;;4185243;28;20622;-71
2023/01/26 10:42:00;;;;;;;13.18;2.92;;;16.50;62.10;;;;;;4191606;28;20075;-71
2023/01/26 10:44:43;;;;;;;20.42;4.15;;;16.60;61.90;;;;;;4192169;28;20182;-70
2023/01/26 10:47:25;;;;;;;19.52;3.83;;;16.70;61.60;;;;;;4191169;28;20056;-71
2023/01/26 10:50:20;;;;;;;;;;;16.80;61.60;;;;;;4171785;28;20064;-70
2023/01/26 10:53:03;;;;;;;17.38;3.97;;;16.80;61.60;;;;;;4188566;28;19931;-70
2023/01/26 10:55:57;;;;;;;15.38;2.85;;;16.90;61.90;;;;;;4187947;28;20055;-70
2023/01/26 10:58:46;;;;;;;15.43;2.92;;;16.90;61.60;;;;;;4189584;28;20490;-70
2023/01/26 11:01:51;;;;;;;21.95;3.88;;;16.90;61.60;;;;;;4177278;28;20118;-62
2023/01/26 11:04:32;;;;;;;21.58;3.80;;;16.90;62.70;;;;;;4185055;28;20059;-62
2023/01/26 11:07:23;;;;;;;;;;;16.80;61.60;;;;;;4178038;28;20055;-61
2023/01/26 11:10:25;;;;;;;15.20;3.30;;;16.80;61.90;;;;;;4176241;28;20316;-61
2023/01/26 11:13:15;;;;;;;22.27;4.00;;;16.60;62.20;;;;;;4189858;28;20051;-62
2023/01/26 11:16:10;;;;;;;17.95;3.78;;;16.50;62.80;;;;;;4164999;28;20066;-62
2023/01/26 11:18:57;;;;;;;19.75;3.75;;;16.30;63.40;;;;;;4171868;28;20059;-62
2023/01/26 11:21:43;;;;;;;19.42;3.60;;;16.30;63.80;;;;;;4190741;28;20059;-62
2023/01/26 11:24:28;;;;;;;12.48;3.95;;;16.40;63.50;;;;;;4180466;28;20415;-61
2023/01/26 11:27:28;;;;;;;21.25;4.28;;;16.50;63.30;;;;;;4164102;28;20047;-62
2023/01/26 11:30:34;;;;;;;16.50;3.30;;;16.50;63.30;;;;;;4193588;28;20048;-61
2023/01/26 11:33:25;;;;;;;15.57;3.53;;;16.50;63.50;;;;;;4194035;28;20075;-62
2023/01/26 11:36:17;;;;;;;18.02;3.80;;;16.50;63.70;;;;;;4194781;28;20071;-63
2023/01/26 11:39:09;;;;;;;8.60;2.33;;;16.40;63.90;;;;;;4178135;28;20055;-62
2023/01/26 11:42:10;;;;;;;15.13;2.58;;;16.40;64.10;;;;;;4181730;28;20489;-63
2023/01/26 11:45:08;;;;;;;10.02;2.50;;;16.30;64.20;;;;;;4194239;28;20182;-63
2023/01/26 11:48:09;;;;;;;16.10;3.55;;;16.10;64.00;;;;;;4188905;28;20125;-62
2023/01/26 11:50:55;;;;;;;13.13;2.40;;;15.90;65.40;;;;;;4191031;28;20059;-62
2023/01/26 11:53:58;;;;;;;9.95;2.05;;;15.80;65.30;;;;;;4187881;28;20051;-63
2023/01/26 11:56:48;;;;;;;10.95;1.90;;;15.70;65.70;;;;;;4177839;28;20119;-62
2023/01/26 11:59:33;;;;;;;9.43;1.95;;;15.70;65.90;;;;;;4184730;28;20522;-63
2023/01/26 12:02:26;;;;;;;10.40;2.72;;;15.70;66.00;;;;;;4187720;28;20194;-62
2023/01/26 12:05:17;;;;;;;10.32;2.33;;;15.70;66.10;;;;;;4181457;28;20055;-63
2023/01/26 12:08:04;;;;;;;11.45;2.38;;;15.70;67.20;;;;;;4194289;28;20048;-63
2023/01/26 12:10:55;;;;;;;9.48;2.03;;;15.80;66.50;;;;;;4193966;28;20051;-63
2023/01/26 12:13:41;;;;;;;10.10;2.28;;;15.90;66.30;;;;;;4194358;28;20062;-62
2023/01/26 12:16:33;;;;;;;12.05;3.15;;;15.90;66.00;;;;;;4181796;28;20534;-62
2023/01/26 12:19:26;;;;;;;18.13;3.17;;;16.00;65.90;;;;;;4177212;28;20051;-63
2023/01/26 12:22:14;;;;;;;12.32;2.20;;;15.90;66.10;;;;;;4193664;28;20066;-63
2023/01/26 12:25:00;;;;;;;15.85;2.75;;;15.90;66.10;;;;;;4189532;28;20055;-63
2023/01/26 12:28:13;;;;;;;12.40;2.75;;;15.90;66.20;;;;;;4194104;28;20047;-63
2023/01/26 12:31:01;;;;;;;13.18;2.95;;;15.90;66.30;;;;;;4194093;28;20501;-62
2023/01/26 12:33:43;;;;;;;9.80;2.03;;;15.90;66.50;;;;;;4194143;28;20774;-62
2023/01/26 12:36:35;;;;;;;14.90;2.58;;;15.80;66.90;;;;;;4193499;28;20046;-71
2023/01/26 12:39:25;;;;;;;16.38;2.25;;;15.80;67.20;;;;;;4193902;28;20051;-69
2023/01/26 12:42:19;;;;;;;12.10;2.90;;;15.80;67.40;;;;;;4193414;28;20052;-70
2023/01/26 12:45:02;;;;;;;7.78;3.28;;;15.80;67.70;;;;;;4193531;28;20074;-70
2023/01/26 12:47:47;;;;;;;11.13;2.38;;;15.80;67.60;;;;;;4189054;28;20113;-70
2023/01/26 12:50:30;;;;;;;16.90;2.50;;;15.80;67.50;;;;;;4193732;28;20063;-71
2023/01/26 12:53:16;;;;;;;8.40;2.22;;;15.80;68.10;;;;;;4193638;28;20494;-70
2023/01/26 12:56:09;;;;;;;12.13;1.77;;;15.80;67.00;;;;;;4193021;28;20054;-70
2023/01/26 12:58:52;;;;;;;6.45;1.90;;;15.80;67.90;;;;;;4193490;28;20095;-70
2023/01/26 13:01:40;;;;;;;8.55;1.60;;;15.80;67.20;;;;;;4193877;28;20070;-70
2023/01/26 13:04:22;;;;;;;7.40;1.50;;;15.80;67.40;;;;;;4193794;28;20399;-71
2023/01/26 13:07:04;;;;;;;14.80;2.67;;;15.80;67.50;;;;;;4193824;28;20051;-71
2023/01/26 13:10:19;;;;;;;9.98;1.60;;;15.80;67.50;;;;;;4193370;28;20040;-71
2023/01/26 13:13:21;;;;;;;11.07;2.47;;;15.80;67.00;;;;;;4193071;28;20051;-70
2023/01/26 13:16:30;;;;;;;7.57;1.60;;;15.90;66.90;;;;;;4176648;28;20084;-70
2023/01/26 13:19:35;;;;;;;12.25;1.83;;;15.90;66.80;;;;;;4176785;28;20503;-71
2023/01/26 13:22:38;;;;;;;11.95;1.58;;;15.80;66.80;;;;;;4178252;28;20060;-70
2023/01/26 13:25:30;;;;;;;6.82;1.80;;;15.80;67.20;;;;;;4190827;28;20182;-69
2023/01/26 13:28:13;;;;;;;13.20;2.35;;;15.70;67.30;;;;;;4192007;28;20047;-70
2023/01/26 13:31:04;;;;;;;11.02;1.98;;;15.70;67.50;;;;;;4193413;28;20133;-70
2023/01/26 13:33:48;;;;;;;8.67;2.20;;;15.70;67.60;;;;;;4172994;28;20052;-70
2023/01/26 13:36:36;;;;;;;10.70;1.88;;;15.70;67.40;;;;;;4189750;28;20290;-71
2023/01/26 13:39:27;;;;;;;11.23;1.80;;;15.70;67.40;;;;;;4180168;28;20040;-70
2023/01/26 13:42:19;;;;;;;7.95;2.10;;;15.70;67.40;;;;;;4192616;28;20059;-70
2023/01/26 13:45:04;;;;;;;11.77;1.60;;;15.70;67.30;;;;;;4180088;28;20055;-71
2023/01/26 13:47:48;;;;;;;9.73;1.80;;;15.70;67.10;;;;;;4176190;28;20048;-71
2023/01/26 13:50:30;;;;;;;10.52;2.47;;;15.70;67.10;;;;;;4187327;28;20056;-71
2023/01/26 13:53:36;;;;;;;10.20;1.90;;;15.70;67.10;;;;;;4188419;28;20105;-71
2023/01/26 13:56:26;;;;;;;4.85;1.45;;;15.80;66.90;;;;;;4175584;28;20171;-70
2023/01/26 13:59:11;;;;;;;10.60;2.05;;;15.80;66.70;;;;;;4183727;28;20104;-69
2023/01/26 14:01:54;;;;;;;8.00;1.98;;;15.70;66.40;;;;;;4179595;28;20056;-69
2023/01/26 14:04:36;;;;;;;7.82;2.00;;;15.70;66.30;;;;;;4185036;28;20055;-69
2023/01/26 14:07:26;;;;;;;5.47;1.92;;;15.70;66.50;;;;;;4180045;28;20399;-70
2023/01/26 14:10:15;;;;;;;10.77;2.28;;;15.70;67.90;;;;;;4171509;28;20043;-70
2023/01/26 14:12:56;;;;;;;12.02;2.60;;;15.70;67.00;;;;;;4190930;28;20119;-69
2023/01/26 14:15:38;;;;;;;8.88;2.08;;;15.80;66.90;;;;;;4191687;28;20074;-69
2023/01/26 14:18:21;;;;;;;10.90;2.13;;;15.80;66.60;;;;;;4191847;28;20178;-70
2023/01/26 14:21:04;;;;;;;9.45;2.03;;;15.70;66.60;;;;;;4191568;28;20067;-69
2023/01/26 14:23:53;;;;;;;8.77;2.08;;;15.70;66.70;;;;;;4175695;28;20424;-70
2023/01/26 14:26:36;;;;;;;8.55;2.15;;;15.70;67.00;;;;;;4175407;28;20153;-70
2023/01/26 14:29:21;;;;;;;11.60;2.13;;;15.70;66.80;;;;;;4175711;28;20091;-69
2023/01/26 14:32:02;;;;;;;10.27;2.53;;;15.70;66.80;;;;;;4175727;28;20047;-69
2023/01/26 14:34:51;;;;;;;;;;;15.70;66.70;;;;;;4175372;28;20071;-69
2023/01/26 14:37:32;;;;;;;8.90;2.05;;;15.60;66.70;;;;;;4192450;28;19932;-69
2023/01/26 14:40:23;;;;;;;13.02;2.10;;;15.50;66.80;;;;;;4192494;28;20070;-68
2023/01/26 14:43:05;;;;;;;10.98;2.35;;;15.50;67.20;;;;;;4192270;28;20051;-69
2023/01/26 14:45:50;;;;;;;12.98;2.33;;;15.40;67.50;;;;;;4191514;28;20078;-69
2023/01/26 14:48:34;;;;;;;15.38;1.83;;;15.40;67.80;;;;;;4188519;28;20113;-69
2023/01/26 14:51:21;;;;;;;10.88;2.28;;;15.30;67.90;;;;;;4191941;28;20055;-69
2023/01/26 14:54:10;;;;;;;10.38;2.20;;;15.30;67.90;;;;;;4177511;28;20060;-68
2023/01/26 14:56:51;;;;;;;13.68;2.28;;;15.40;67.80;;;;;;4180395;28;20203;-69
2023/01/26 14:59:37;;;;;;;11.43;2.17;;;15.30;67.90;;;;;;4173579;28;20479;-69